createdAt,value
2023-05-16T00:01:51.853Z,95861.91
2023-05-16T00:04:21.591Z,95866.59
2023-05-16T00:06:49.887Z,95865.13
2023-05-16T00:09:18.162Z,95858.66
2023-05-16T00:11:48.267Z,95852.84
2023-05-16T00:14:16.548Z,95855.53
2023-05-16T00:16:44.877Z,95851.75
2023-05-16T00:19:13.768Z,95857.19
2023-05-16T00:21:44.754Z,95850.91
2023-05-16T00:24:13.137Z,95857.91
2023-05-16T00:26:41.433Z,95849.38
2023-05-16T00:29:09.656Z,95849.31
2023-05-16T00:31:37.918Z,95845.59
2023-05-16T00:34:06.315Z,95844.88
2023-05-16T00:36:35.823Z,95853.63
2023-05-16T00:39:05.445Z,95852.19
2023-05-16T00:41:35.251Z,95847.53
2023-05-16T00:44:03.641Z,95857.69
2023-05-16T00:46:31.979Z,95845.84
2023-05-16T00:49:00.324Z,95845.72
2023-05-16T00:51:28.586Z,95847.19
2023-05-16T00:53:58.134Z,95853.25
2023-05-16T00:56:27.785Z,95841.94
2023-05-16T00:58:56.031Z,95841.25
2023-05-16T01:01:27.518Z,95845.53
2023-05-16T01:03:56.185Z,95852.88
2023-05-16T01:06:24.615Z,95848.50
2023-05-16T01:08:52.811Z,95847.22
2023-05-16T01:11:26.860Z,95842.22
2023-05-16T01:14:03.906Z,95844.69
2023-05-16T01:16:37.620Z,95850.13
2023-05-16T01:19:16.543Z,95841.47
2023-05-16T01:21:51.269Z,95845.19
2023-05-16T01:24:25.225Z,95835.97
2023-05-16T01:26:55.540Z,95824.63
2023-05-16T01:29:23.892Z,95825.59
2023-05-16T01:31:52.145Z,95836.38
2023-05-16T01:34:20.447Z,95826.34
2023-05-16T01:36:54.545Z,95817.59
2023-05-16T01:39:27.866Z,95830.66
2023-05-16T01:42:03.556Z,95819.31
2023-05-16T01:44:34.967Z,95822.84
2023-05-16T01:47:07.329Z,95822.44
2023-05-16T01:49:37.495Z,95826.94
2023-05-16T01:52:10.918Z,95824.31
2023-05-16T01:54:40.967Z,95823.16
2023-05-16T01:57:11.676Z,95818.88
2023-05-16T01:59:40.631Z,95818.06
2023-05-16T02:02:08.852Z,95819.25
2023-05-16T02:04:37.075Z,95816.53
2023-05-16T02:07:06.052Z,95819.09
2023-05-16T02:09:34.451Z,95824.22
2023-05-16T02:12:02.930Z,95817.06
2023-05-16T02:14:32.523Z,95823.63
2023-05-16T02:17:00.872Z,95821.88
2023-05-16T02:19:29.302Z,95826.56
2023-05-16T02:21:57.530Z,95829.50
2023-05-16T02:24:26.053Z,95823.09
2023-05-16T02:26:54.318Z,95831.47
2023-05-16T02:29:22.513Z,95825.84
2023-05-16T02:31:52.085Z,95820.81
2023-05-16T02:34:20.333Z,95836.59
2023-05-16T02:36:48.538Z,95823.66
2023-05-16T02:39:16.798Z,95829.06
2023-05-16T02:41:45.036Z,95833.00
2023-05-16T02:44:13.248Z,95828.09
2023-05-16T02:46:41.630Z,95827.19
2023-05-16T02:49:11.273Z,95826.34
2023-05-16T02:51:39.490Z,95828.84
2023-05-16T02:54:09.897Z,95838.13
2023-05-16T02:56:38.271Z,95831.03
2023-05-16T02:59:06.986Z,95827.91
2023-05-16T03:01:35.399Z,95820.06
2023-05-16T03:04:03.783Z,95821.84
2023-05-16T03:06:33.642Z,95832.34
2023-05-16T03:09:01.979Z,95845.06
2023-05-16T03:11:30.224Z,95839.03
2023-05-16T03:14:01.504Z,95833.53
2023-05-16T03:16:30.580Z,95832.72
2023-05-16T03:18:58.970Z,95826.50
2023-05-16T03:21:27.381Z,95839.53
2023-05-16T03:23:57.102Z,95832.47
2023-05-16T03:26:25.820Z,95838.22
2023-05-16T03:28:54.094Z,95837.59
2023-05-16T03:31:22.379Z,95818.31
2023-05-16T03:33:50.864Z,95828.53
2023-05-16T03:36:19.848Z,95824.09
2023-05-16T03:38:48.106Z,95825.09
2023-05-16T03:41:17.783Z,95830.53
2023-05-16T03:43:46.032Z,95822.19
2023-05-16T03:46:14.497Z,95824.91
2023-05-16T03:48:42.835Z,95822.75
2023-05-16T03:51:11.068Z,95821.13
2023-05-16T03:53:39.439Z,95815.91
2023-05-16T03:56:08.028Z,95817.44
2023-05-16T03:58:37.773Z,95825.44
2023-05-16T04:01:06.160Z,95824.38
2023-05-16T04:03:34.880Z,95815.41
2023-05-16T04:06:03.189Z,95822.22
2023-05-16T04:08:31.779Z,95823.31
2023-05-16T04:11:00.012Z,95829.38
2023-05-16T04:13:28.345Z,95825.59
2023-05-16T04:15:58.009Z,95822.16
2023-05-16T04:18:26.248Z,95831.09
2023-05-16T04:20:54.481Z,95825.31
2023-05-16T04:23:22.710Z,95830.69
2023-05-16T04:25:51.073Z,95830.88
2023-05-16T04:28:19.277Z,95827.16
2023-05-16T04:30:47.691Z,95839.78
2023-05-16T04:33:17.659Z,95829.28
2023-05-16T04:35:45.873Z,95826.88
2023-05-16T04:38:14.142Z,95842.22
2023-05-16T04:40:43.199Z,95833.13
2023-05-16T04:43:11.568Z,95833.03
2023-05-16T04:45:39.829Z,95836.19
2023-05-16T04:48:08.340Z,95836.59
2023-05-16T04:50:37.974Z,95831.47
2023-05-16T04:53:06.267Z,95835.03
2023-05-16T04:55:34.571Z,95845.88
2023-05-16T04:58:02.798Z,95841.97
2023-05-16T05:00:31.342Z,95839.00
2023-05-16T05:02:59.609Z,95838.78
2023-05-16T05:05:28.275Z,95840.72
2023-05-16T05:07:59.336Z,95838.16
2023-05-16T05:10:28.539Z,95840.00
2023-05-16T05:12:56.763Z,95839.09
2023-05-16T05:15:25.252Z,95835.66
2023-05-16T05:17:53.663Z,95835.09
2023-05-16T05:20:22.090Z,95843.44
2023-05-16T05:22:50.293Z,95846.69
2023-05-16T05:25:19.901Z,95844.31
2023-05-16T05:27:48.200Z,95845.47
2023-05-16T05:30:16.507Z,95841.72
2023-05-16T05:32:44.713Z,95836.88
2023-05-16T05:35:12.993Z,95838.06
2023-05-16T05:37:41.195Z,95834.03
2023-05-16T05:40:10.425Z,95829.03
2023-05-16T05:42:39.974Z,95826.81
2023-05-16T05:45:09.124Z,95833.94
2023-05-16T05:47:37.399Z,95829.19
2023-05-16T05:50:06.832Z,95828.59
2023-05-16T05:52:35.102Z,95833.63
2023-05-16T05:55:03.338Z,95822.13
2023-05-16T05:57:31.724Z,95820.13
2023-05-16T06:00:01.285Z,95822.72
2023-05-16T06:02:29.763Z,95827.28
2023-05-16T06:04:58.191Z,95829.38
2023-05-16T06:07:26.463Z,95828.13
2023-05-16T06:09:54.670Z,95831.25
2023-05-16T06:12:22.979Z,95829.56
2023-05-16T06:14:51.201Z,95825.72
2023-05-16T06:17:20.792Z,95817.72
2023-05-16T06:19:49.319Z,95820.47
2023-05-16T06:22:17.596Z,95827.50
2023-05-16T06:24:45.958Z,95831.56
2023-05-16T06:27:14.171Z,95826.63
2023-05-16T06:29:42.467Z,95825.25
2023-05-16T06:32:13.067Z,95827.03
2023-05-16T06:34:43.105Z,95837.63
2023-05-16T06:37:11.345Z,95832.44
2023-05-16T06:39:39.622Z,95836.19
2023-05-16T06:42:08.072Z,95834.47
2023-05-16T06:44:36.360Z,95828.69
2023-05-16T06:47:05.032Z,95836.78
2023-05-16T06:49:33.325Z,95838.28
2023-05-16T06:52:03.674Z,95840.41
2023-05-16T06:54:32.390Z,95835.59
2023-05-16T06:57:00.785Z,95838.78
2023-05-16T06:59:29.127Z,95828.91
2023-05-16T07:01:57.461Z,95831.47
2023-05-16T07:04:25.805Z,95828.22
2023-05-16T07:06:54.496Z,95832.81
2023-05-16T07:09:24.158Z,95827.34
2023-05-16T07:11:52.449Z,95835.56
2023-05-16T07:14:20.793Z,95840.56
2023-05-16T07:16:49.081Z,95829.34
2023-05-16T07:19:17.467Z,95833.19
2023-05-16T07:21:45.741Z,95838.06
2023-05-16T07:24:13.994Z,95836.44
2023-05-16T07:26:43.672Z,95833.13
2023-05-16T07:29:11.983Z,95842.38
2023-05-16T07:31:40.261Z,95833.69
2023-05-16T07:34:08.590Z,95843.84
2023-05-16T07:36:36.887Z,95843.78
2023-05-16T07:39:05.535Z,95850.50
2023-05-16T07:41:33.797Z,95844.13
2023-05-16T07:44:03.386Z,95848.47
2023-05-16T07:46:31.684Z,95846.84
2023-05-16T07:49:00.038Z,95854.34
2023-05-16T07:51:28.860Z,95856.34
2023-05-16T07:53:57.103Z,95856.31
2023-05-16T07:56:25.392Z,95856.63
2023-05-16T07:58:53.773Z,95846.03
2023-05-16T08:01:23.634Z,95859.88
2023-05-16T08:03:53.575Z,95857.34
2023-05-16T08:06:21.876Z,95860.13
2023-05-16T08:08:50.179Z,95861.78
2023-05-16T08:11:19.794Z,95861.75
2023-05-16T08:13:49.572Z,95866.06
2023-05-16T08:16:18.450Z,95866.59
2023-05-16T08:18:48.160Z,95868.28
2023-05-16T08:21:16.752Z,95867.13
2023-05-16T08:23:45.070Z,95870.72
2023-05-16T08:26:13.338Z,95871.22
2023-05-16T08:28:41.638Z,95872.06
2023-05-16T08:31:11.969Z,95874.47
2023-05-16T08:33:40.360Z,95867.97
2023-05-16T08:36:10.958Z,95884.31
2023-05-16T08:38:38.995Z,95875.91
2023-05-16T08:41:07.739Z,95872.59
2023-05-16T08:43:36.755Z,95872.22
2023-05-16T08:46:05.144Z,95873.06
2023-05-16T08:48:34.316Z,95880.47
2023-05-16T08:51:04.073Z,95873.41
2023-05-16T08:53:41.091Z,95874.81
2023-05-16T08:56:09.855Z,95873.41
2023-05-16T08:58:38.411Z,95876.38
2023-05-16T09:01:08.951Z,95871.19
2023-05-16T09:03:38.407Z,95867.38
2023-05-16T09:06:08.123Z,95877.13
2023-05-16T09:08:38.107Z,95868.16
2023-05-16T09:11:06.534Z,95875.44
2023-05-16T09:13:34.884Z,95875.31
2023-05-16T09:16:13.457Z,95878.31
2023-05-16T09:18:42.251Z,95870.44
2023-05-16T09:21:11.298Z,95860.97
2023-05-16T09:23:40.909Z,95859.53
2023-05-16T09:26:09.524Z,95859.63
2023-05-16T09:28:39.430Z,95861.94
2023-05-16T09:31:21.973Z,95856.91
2023-05-16T09:33:51.161Z,95857.94
2023-05-16T09:36:19.702Z,95863.28
2023-05-16T09:38:49.568Z,95872.75
2023-05-16T09:41:17.929Z,95855.44
2023-05-16T09:43:46.429Z,95859.97
2023-05-16T09:46:15.650Z,95851.84
2023-05-16T09:48:46.771Z,95861.13
2023-05-16T09:51:16.229Z,95859.84
2023-05-16T09:53:44.708Z,95851.72
2023-05-16T09:56:15.765Z,95849.56
2023-05-16T09:58:44.978Z,95857.16
2023-05-16T10:01:13.501Z,95856.84
2023-05-16T10:03:43.271Z,95859.56
2023-05-16T10:06:11.856Z,95863.72
2023-05-16T10:08:43.135Z,95862.00
2023-05-16T10:11:11.717Z,95862.00
2023-05-16T10:13:41.607Z,95867.75
2023-05-16T10:16:13.486Z,95870.03
2023-05-16T10:18:42.409Z,95874.59
2023-05-16T10:21:12.249Z,95871.44
2023-05-16T10:23:43.523Z,95872.97
2023-05-16T10:26:14.541Z,95870.06
2023-05-16T10:28:44.700Z,95864.72
2023-05-16T10:31:13.041Z,95865.91
2023-05-16T10:33:41.899Z,95864.97
2023-05-16T10:36:11.334Z,95873.31
2023-05-16T10:38:39.961Z,95867.47
2023-05-16T10:41:08.881Z,95875.53
2023-05-16T10:43:37.242Z,95884.38
2023-05-16T10:46:09.715Z,95872.56
2023-05-16T10:48:39.860Z,95880.78
2023-05-16T10:51:35.476Z,95872.84
2023-05-16T10:54:08.467Z,95871.25
2023-05-16T10:56:37.355Z,95881.50
2023-05-16T10:59:05.973Z,95874.72
2023-05-16T11:01:36.182Z,95879.66
2023-05-16T11:04:10.306Z,95875.53
2023-05-16T11:06:51.672Z,95878.03
2023-05-16T11:09:23.444Z,95871.78
2023-05-16T11:12:02.807Z,95874.03
2023-05-16T11:14:38.244Z,95868.22
2023-05-16T11:17:13.298Z,95860.75
2023-05-16T11:19:43.937Z,95849.00
2023-05-16T11:22:22.912Z,95869.34
2023-05-16T11:24:53.490Z,95864.41
2023-05-16T11:27:26.774Z,95856.06
2023-05-16T11:29:56.814Z,95860.56
2023-05-16T11:32:26.673Z,95855.28
2023-05-16T11:34:55.425Z,95853.59
2023-05-16T11:37:23.869Z,95852.72
2023-05-16T11:39:52.218Z,95846.75
2023-05-16T11:42:20.821Z,95838.94
2023-05-16T11:44:49.081Z,95848.47
2023-05-16T11:47:17.836Z,95844.13
2023-05-16T11:49:48.862Z,95847.13
2023-05-16T11:52:18.350Z,95855.75
2023-05-16T11:54:46.881Z,95852.81
2023-05-16T11:57:15.296Z,95854.72
2023-05-16T11:59:43.777Z,95855.81
2023-05-16T12:02:12.189Z,95856.06
2023-05-16T12:04:40.773Z,95851.44
2023-05-16T12:07:10.704Z,95851.38
2023-05-16T12:09:38.933Z,95852.47
2023-05-16T12:12:08.952Z,95858.16
2023-05-16T12:14:37.285Z,95859.09
2023-05-16T12:17:06.001Z,95861.31
2023-05-16T12:19:34.382Z,95862.97
2023-05-16T12:22:02.843Z,95850.31
2023-05-16T12:24:33.047Z,95864.47
2023-05-16T12:27:01.297Z,95859.78
2023-05-16T12:29:29.626Z,95864.28
2023-05-16T12:31:57.950Z,95860.03
2023-05-16T12:34:30.245Z,95851.69
2023-05-16T12:37:01.944Z,95853.91
2023-05-16T12:39:39.735Z,95838.72
2023-05-16T12:42:09.648Z,95830.84
2023-05-16T12:44:38.008Z,95826.22
2023-05-16T12:47:13.126Z,95826.97
2023-05-16T12:49:45.917Z,95829.50
2023-05-16T12:52:23.123Z,95828.97
2023-05-16T12:54:53.791Z,95824.88
2023-05-16T12:57:22.025Z,95823.75
2023-05-16T12:59:50.421Z,95827.22
2023-05-16T13:02:18.997Z,95830.03
2023-05-16T13:04:47.545Z,95854.91
2023-05-16T13:07:17.652Z,95856.97
2023-05-16T13:09:45.953Z,95861.31
2023-05-16T13:12:15.875Z,95865.41
2023-05-16T13:14:45.172Z,95874.84
2023-05-16T13:17:13.440Z,95888.91
2023-05-16T13:19:41.743Z,95900.44
2023-05-16T13:22:10.033Z,95893.19
2023-05-16T13:24:38.301Z,95893.19
2023-05-16T13:27:06.794Z,95874.34
2023-05-16T13:29:36.534Z,95888.53
2023-05-16T13:32:05.269Z,95880.75
2023-05-16T13:34:33.694Z,95882.81
2023-05-16T13:37:01.976Z,95884.44
2023-05-16T13:39:30.363Z,95886.69
2023-05-16T13:41:59.295Z,95892.91
2023-05-16T13:44:27.575Z,95895.50
2023-05-16T13:46:57.802Z,95902.38
2023-05-16T13:49:26.257Z,95902.25
2023-05-16T13:51:54.548Z,95895.59
2023-05-16T13:54:22.896Z,95899.56
2023-05-16T13:56:51.190Z,95903.06
2023-05-16T13:59:31.837Z,95895.53
2023-05-16T14:02:09.026Z,95897.69
2023-05-16T14:04:37.340Z,95890.50
2023-05-16T14:07:05.972Z,95888.72
2023-05-16T14:09:35.408Z,95906.25
2023-05-16T14:12:04.226Z,95901.53
2023-05-16T14:14:35.711Z,58918.88
2023-05-16T14:17:04.423Z,58918.88
2023-05-16T14:19:54.713Z,78933.44
2023-05-16T14:22:25.944Z,58918.88
2023-05-16T14:25:00.426Z,58918.88
2023-05-16T14:27:28.680Z,58918.88
2023-05-16T14:30:09.603Z,58918.88
2023-05-16T14:33:56.401Z,58918.88
2023-05-16T14:36:30.171Z,58918.88
2023-05-16T14:38:58.263Z,58918.88
2023-05-16T14:41:26.688Z,58918.88
2023-05-16T14:43:56.298Z,58918.88
2023-05-16T14:46:24.606Z,58918.88
2023-05-16T14:48:52.674Z,58918.88
